createdAt,value
2022-12-09T00:01:28.272Z,96564.66
2022-12-09T00:03:57.066Z,96562.53
2022-12-09T00:06:26.644Z,96568.78
2022-12-09T00:08:59.179Z,96565.41
2022-12-09T00:11:27.970Z,96566.03
2022-12-09T00:13:58.763Z,96565.59
2022-12-09T00:16:28.170Z,96560.88
2022-12-09T00:18:58.431Z,96556.41
2022-12-09T00:21:28.163Z,96565.19
2022-12-09T00:23:58.749Z,96565.59
2022-12-09T00:26:29.137Z,96558.53
2022-12-09T00:28:58.826Z,96556.00
2022-12-09T00:31:28.567Z,96565.38
2022-12-09T00:33:58.884Z,96554.50
2022-12-09T00:36:28.467Z,96564.22
2022-12-09T00:38:59.417Z,96556.94
2022-12-09T00:41:28.436Z,96559.28
2022-12-09T00:43:57.289Z,96554.09
2022-12-09T00:46:26.640Z,96558.31
2022-12-09T00:48:55.810Z,96553.47
2022-12-09T00:51:27.601Z,96556.66
2022-12-09T00:53:58.127Z,96559.59
2022-12-09T00:56:28.725Z,96548.91
2022-12-09T00:58:58.191Z,96554.06
2022-12-09T01:01:27.052Z,96543.00
2022-12-09T01:03:56.152Z,96549.53
2022-12-09T01:06:26.272Z,96545.72
2022-12-09T01:08:55.218Z,96541.44
2022-12-09T01:11:26.504Z,96546.50
2022-12-09T01:13:57.985Z,96556.63
2022-12-09T01:16:27.652Z,96559.41
2022-12-09T01:18:57.632Z,96558.44
2022-12-09T01:21:26.835Z,96547.97
2022-12-09T01:23:55.521Z,96558.53
2022-12-09T01:26:25.592Z,96554.19
2022-12-09T01:28:55.854Z,96558.41
2022-12-09T01:31:25.846Z,96554.50
2022-12-09T01:33:56.002Z,96561.69
2022-12-09T01:36:25.667Z,96559.81
2022-12-09T01:38:54.776Z,96555.47
2022-12-09T01:41:25.063Z,96556.41
2022-12-09T01:44:12.386Z,96564.31
2022-12-09T01:46:41.297Z,96554.84
2022-12-09T01:49:10.958Z,96561.50
2022-12-09T01:51:39.676Z,96562.44
2022-12-09T01:54:08.628Z,96552.28
2022-12-09T01:56:38.734Z,96549.84
2022-12-09T01:59:09.736Z,96545.19
2022-12-09T02:01:38.651Z,96547.75
2022-12-09T02:04:07.753Z,96546.66
2022-12-09T02:06:37.890Z,96555.75
2022-12-09T02:09:06.985Z,96551.31
2022-12-09T02:11:45.512Z,96548.38
2022-12-09T02:14:17.339Z,96545.75
2022-12-09T02:16:49.111Z,96539.72
2022-12-09T02:19:24.496Z,96543.81
2022-12-09T02:21:55.745Z,96537.59
2022-12-09T02:24:26.260Z,96537.56
2022-12-09T02:26:58.791Z,96535.25
2022-12-09T02:29:34.580Z,96531.16
2022-12-09T02:32:14.619Z,96530.53
2022-12-09T02:34:49.936Z,96530.19
2022-12-09T02:37:19.562Z,96523.22
2022-12-09T02:39:51.705Z,96525.44
2022-12-09T02:42:21.698Z,96528.53
2022-12-09T02:44:51.482Z,96523.34
2022-12-09T02:47:21.777Z,96517.53
2022-12-09T02:49:53.126Z,96517.22
2022-12-09T02:52:22.516Z,96516.91
2022-12-09T02:54:52.584Z,96514.28
2022-12-09T02:57:26.959Z,96514.78
2022-12-09T02:59:55.860Z,96511.91
2022-12-09T03:02:29.100Z,96513.22
2022-12-09T03:05:04.725Z,96511.06
2022-12-09T03:07:37.213Z,96510.97
2022-12-09T03:10:09.101Z,96504.50
2022-12-09T03:12:38.363Z,96505.53
2022-12-09T03:15:07.968Z,96507.78
2022-12-09T03:17:37.002Z,96501.22
2022-12-09T03:20:08.965Z,96495.38
2022-12-09T03:22:38.049Z,96492.06
2022-12-09T03:25:10.496Z,96495.56
2022-12-09T03:27:41.248Z,96492.22
2022-12-09T03:30:11.140Z,96489.09
2022-12-09T03:32:40.391Z,96485.41
2022-12-09T03:35:12.669Z,96486.19
2022-12-09T03:37:41.580Z,96474.03
2022-12-09T03:40:14.259Z,96483.41
2022-12-09T03:42:46.183Z,96481.81
2022-12-09T03:45:14.801Z,96472.72
2022-12-09T03:47:43.791Z,96471.09
2022-12-09T03:50:14.148Z,96473.97
2022-12-09T03:52:45.838Z,96474.81
2022-12-09T03:55:19.856Z,96475.97
2022-12-09T03:57:49.656Z,96468.53
2022-12-09T04:00:19.574Z,96466.63
2022-12-09T04:02:48.575Z,96474.28
2022-12-09T04:05:19.119Z,96473.06
2022-12-09T04:07:48.635Z,96470.69
2022-12-09T04:10:17.475Z,96463.44
2022-12-09T04:12:46.200Z,96460.72
2022-12-09T04:15:15.149Z,96460.66
2022-12-09T04:17:44.538Z,96460.97
2022-12-09T04:20:14.522Z,96454.38
2022-12-09T04:22:45.081Z,96456.03
2022-12-09T04:25:13.843Z,96456.53
2022-12-09T04:27:43.082Z,96458.25
2022-12-09T04:30:13.314Z,96453.13
2022-12-09T04:32:42.643Z,96448.06
2022-12-09T04:35:12.488Z,96453.97
2022-12-09T04:37:41.392Z,96448.63
2022-12-09T04:40:18.199Z,96448.06
2022-12-09T04:42:50.126Z,96447.00
2022-12-09T04:45:18.974Z,96443.34
2022-12-09T04:47:48.098Z,96443.13
2022-12-09T04:50:17.804Z,96443.44
2022-12-09T04:52:46.827Z,96439.81
2022-12-09T04:55:17.487Z,96443.00
2022-12-09T04:57:46.225Z,96440.69
2022-12-09T05:00:17.979Z,96446.25
2022-12-09T05:02:46.896Z,96447.50
2022-12-09T05:05:16.108Z,96448.03
2022-12-09T05:07:45.913Z,96451.28
2022-12-09T05:10:15.226Z,96452.25
2022-12-09T05:12:46.422Z,96453.00
2022-12-09T05:15:15.221Z,96446.56
2022-12-09T05:17:43.997Z,96453.28
2022-12-09T05:20:14.685Z,96446.84
2022-12-09T05:22:43.540Z,96448.75
2022-12-09T05:25:12.234Z,96450.00
2022-12-09T05:27:41.700Z,96454.69
2022-12-09T05:30:13.189Z,96450.84
2022-12-09T05:32:42.808Z,96449.47
2022-12-09T05:35:12.095Z,96441.72
2022-12-09T05:37:40.781Z,96440.38
2022-12-09T05:40:13.898Z,96438.41
2022-12-09T05:42:43.595Z,96438.19
2022-12-09T05:45:14.367Z,96447.72
2022-12-09T05:47:43.616Z,96451.50
2022-12-09T05:50:13.666Z,96443.88
2022-12-09T05:52:42.719Z,96441.34
2022-12-09T05:55:13.498Z,96440.03
2022-12-09T05:57:42.672Z,96436.44
2022-12-09T06:00:13.005Z,96439.44
2022-12-09T06:02:43.741Z,96435.84
2022-12-09T06:05:12.989Z,96426.88
2022-12-09T06:07:42.051Z,96423.31
2022-12-09T06:10:12.232Z,96426.28
2022-12-09T06:12:41.737Z,96424.69
2022-12-09T06:15:15.652Z,96418.84
2022-12-09T06:17:49.105Z,96424.69
2022-12-09T06:20:18.873Z,96426.38
2022-12-09T06:22:47.990Z,96419.31
2022-12-09T06:25:16.934Z,96425.84
2022-12-09T06:27:45.705Z,96424.69
2022-12-09T06:30:14.991Z,96427.31
2022-12-09T06:32:43.871Z,96422.28
2022-12-09T06:35:32.353Z,96423.00
2022-12-09T06:38:01.232Z,96417.19
2022-12-09T06:40:33.542Z,96417.19
2022-12-09T06:43:03.212Z,96420.88
2022-12-09T06:45:32.107Z,96417.63
2022-12-09T06:48:01.105Z,96412.66
2022-12-09T06:50:39.271Z,96416.56
2022-12-09T06:53:10.183Z,96418.97
2022-12-09T06:55:39.663Z,96419.81
2022-12-09T06:58:08.417Z,96416.88
2022-12-09T07:00:37.257Z,96420.59
2022-12-09T07:03:06.704Z,96430.16
2022-12-09T07:05:37.505Z,96424.41
2022-12-09T07:08:07.855Z,96436.63
2022-12-09T07:10:37.806Z,96437.06
2022-12-09T07:13:06.731Z,96434.84
2022-12-09T07:15:36.366Z,96429.78
2022-12-09T07:18:05.568Z,96435.66
2022-12-09T07:20:35.042Z,96434.91
2022-12-09T07:23:07.619Z,96439.69
2022-12-09T07:25:36.674Z,96439.00
2022-12-09T07:28:06.124Z,96444.19
2022-12-09T07:30:35.013Z,96448.00
2022-12-09T07:33:04.036Z,96446.22
2022-12-09T07:35:33.088Z,96449.97
2022-12-09T07:38:03.023Z,96451.91
2022-12-09T07:40:33.449Z,96454.31
2022-12-09T07:43:03.115Z,96454.19
2022-12-09T07:45:32.114Z,96462.03
2022-12-09T07:48:01.467Z,96457.63
2022-12-09T07:50:30.805Z,96456.44
2022-12-09T07:53:00.729Z,96453.03
2022-12-09T07:55:31.971Z,96459.06
2022-12-09T07:58:14.736Z,96461.06
2022-12-09T08:00:44.044Z,96454.78
2022-12-09T08:03:13.360Z,96462.88
2022-12-09T08:05:48.925Z,96459.59
2022-12-09T08:08:18.143Z,96467.03
2022-12-09T08:10:48.012Z,96467.75
2022-12-09T08:13:18.847Z,96465.94
2022-12-09T08:15:47.587Z,96469.84
2022-12-09T08:18:16.541Z,96467.97
2022-12-09T08:20:46.182Z,96477.19
2022-12-09T08:23:15.084Z,96472.84
2022-12-09T08:25:43.991Z,96473.47
2022-12-09T08:28:13.866Z,96473.38
2022-12-09T08:30:44.480Z,96463.66
2022-12-09T08:33:14.389Z,96465.69
2022-12-09T08:35:50.682Z,96455.44
2022-12-09T08:38:24.702Z,96460.38
2022-12-09T08:40:56.606Z,96458.03
2022-12-09T08:43:25.741Z,96453.69
2022-12-09T08:45:56.106Z,96446.47
2022-12-09T08:48:25.445Z,96442.88
2022-12-09T08:50:55.534Z,96443.50
2022-12-09T08:53:24.579Z,96450.19
2022-12-09T08:55:54.108Z,96440.22
2022-12-09T08:58:23.181Z,96444.53
2022-12-09T09:00:52.366Z,96444.00
2022-12-09T09:03:22.831Z,96441.84
2022-12-09T09:05:52.314Z,96435.66
2022-12-09T09:08:21.357Z,96440.19
2022-12-09T09:10:50.632Z,96444.00
2022-12-09T09:13:20.101Z,96445.31
2022-12-09T09:15:48.961Z,96453.06
2022-12-09T09:18:18.206Z,96448.72
2022-12-09T09:20:49.098Z,96455.50
2022-12-09T09:23:20.903Z,96462.06
2022-12-09T09:25:49.756Z,96459.72
2022-12-09T09:28:19.273Z,96463.34
2022-12-09T09:30:50.851Z,96463.31
2022-12-09T09:33:20.244Z,96464.78
2022-12-09T09:35:58.432Z,96465.56
2022-12-09T09:38:27.668Z,96466.56
2022-12-09T09:40:58.822Z,96458.75
2022-12-09T09:43:29.104Z,96458.13
2022-12-09T09:45:58.011Z,96456.25
2022-12-09T09:48:28.890Z,96448.19
2022-12-09T09:51:01.561Z,96456.06
2022-12-09T09:53:32.107Z,96453.31
2022-12-09T09:56:02.120Z,96446.59
2022-12-09T09:58:34.102Z,96435.78
2022-12-09T10:04:52.005Z,96439.56
2022-12-09T10:07:25.284Z,96438.59
2022-12-09T10:09:58.782Z,96442.75
2022-12-09T10:12:30.704Z,96442.38
2022-12-09T10:15:01.657Z,96433.88
2022-12-09T10:17:34.074Z,96433.88
2022-12-09T10:20:06.307Z,96437.03
2022-12-09T10:22:43.129Z,96430.16
2022-12-09T10:25:18.690Z,96416.53
2022-12-09T10:27:50.570Z,96420.88
2022-12-09T10:30:19.954Z,96419.66
2022-12-09T10:32:49.300Z,96413.91
2022-12-09T10:35:19.874Z,96405.66
2022-12-09T10:37:52.677Z,96408.25
2022-12-09T10:40:23.981Z,96402.06
2022-12-09T10:43:07.279Z,96404.13
2022-12-09T10:46:15.073Z,96404.13
2022-12-09T10:48:33.027Z,96403.41
2022-12-09T10:51:05.066Z,96403.06
2022-12-09T10:53:35.415Z,96405.25
2022-12-09T10:56:04.989Z,96400.47
2022-12-09T10:58:34.098Z,96388.25
2022-12-09T11:01:07.268Z,96385.69
2022-12-09T11:03:38.007Z,96387.59
2022-12-09T11:06:22.191Z,96387.56
2022-12-09T11:08:55.381Z,96385.53
2022-12-09T11:11:40.601Z,96378.81
2022-12-09T11:14:23.265Z,96383.28
2022-12-09T11:16:53.771Z,96375.69
2022-12-09T11:19:31.732Z,96377.75
2022-12-09T11:22:16.092Z,96381.84
2022-12-09T11:24:46.623Z,96382.97
2022-12-09T11:27:27.395Z,96378.19
2022-12-09T11:30:13.184Z,96381.13
2022-12-09T11:32:55.843Z,96382.69
2022-12-09T11:35:29.426Z,96381.38
2022-12-09T11:38:01.999Z,96390.03
2022-12-09T11:40:32.608Z,96392.44
2022-12-09T11:43:03.891Z,96393.59
2022-12-09T11:45:37.035Z,96394.84
2022-12-09T11:48:27.491Z,96397.63
2022-12-09T11:50:59.772Z,96392.56
2022-12-09T11:53:31.547Z,96392.56
2022-12-09T11:56:06.057Z,96390.63
2022-12-09T11:58:39.622Z,96383.88
2022-12-09T12:01:11.443Z,96383.28
2022-12-09T12:03:42.737Z,96378.50
2022-12-09T12:06:16.380Z,96385.19
2022-12-09T12:08:46.780Z,96384.00
2022-12-09T12:11:19.112Z,96378.38
2022-12-09T12:13:48.718Z,96379.19
2022-12-09T12:16:20.762Z,96380.53
2022-12-09T12:18:51.685Z,96380.28
2022-12-09T12:21:23.584Z,96382.31
2022-12-09T12:24:08.441Z,96373.19
2022-12-09T12:26:41.721Z,96379.91
2022-12-09T12:29:20.534Z,96381.00
2022-12-09T12:32:01.360Z,96373.56
2022-12-09T12:34:39.128Z,96372.34
2022-12-09T12:37:16.256Z,96372.09
2022-12-09T12:39:50.537Z,96363.78
2022-12-09T12:42:28.271Z,96364.38
2022-12-09T12:45:16.158Z,96361.63
2022-12-09T12:47:48.851Z,96358.13
2022-12-09T12:50:29.708Z,96369.53
2022-12-09T12:53:02.433Z,96361.94
2022-12-09T12:55:43.147Z,96359.13
2022-12-09T12:58:16.823Z,96370.94
2022-12-09T13:00:54.023Z,96369.13
2022-12-09T13:03:26.113Z,96363.88
2022-12-09T13:05:57.460Z,96366.06
2022-12-09T13:08:31.427Z,96357.88
2022-12-09T13:11:04.210Z,96358.72
2022-12-09T13:13:36.373Z,96361.84
2022-12-09T13:16:17.669Z,96359.09
2022-12-09T13:18:46.334Z,96355.63
2022-12-09T13:21:15.331Z,96353.00
2022-12-09T13:23:52.954Z,96346.88
2022-12-09T13:26:27.766Z,96347.13
2022-12-09T13:29:16.977Z,96350.97
2022-12-09T13:31:48.377Z,96349.72
2022-12-09T13:34:24.161Z,96345.44
2022-12-09T13:36:55.126Z,96344.34
2022-12-09T13:39:53.258Z,96346.41
2022-12-09T13:42:50.291Z,96344.22
2022-12-09T13:45:22.590Z,96350.84
2022-12-09T13:47:53.536Z,96351.22
2022-12-09T13:50:27.651Z,96343.31
2022-12-09T13:52:57.978Z,96354.28
2022-12-09T13:55:40.100Z,96352.25
2022-12-09T13:58:28.092Z,96359.09
2022-12-09T14:01:07.707Z,96363.69
2022-12-09T14:03:38.724Z,96360.16
2022-12-09T14:06:20.546Z,96352.31
2022-12-09T14:08:54.984Z,96354.50
2022-12-09T14:11:49.742Z,96361.84
2022-12-09T14:14:48.079Z,96366.81
2022-12-09T14:17:50.030Z,96362.94
2022-12-09T14:20:21.881Z,96372.03
2022-12-09T14:23:12.013Z,96358.94
2022-12-09T14:26:04.372Z,96375.31
2022-12-09T14:28:57.777Z,96367.03
2022-12-09T14:32:32.972Z,96379.88
2022-12-09T14:35:27.306Z,96373.50
2022-12-09T14:38:10.195Z,96373.00
2022-12-09T14:40:54.229Z,96362.72
2022-12-09T14:43:35.989Z,96367.66
2022-12-09T14:46:05.575Z,96368.19
2022-12-09T14:48:35.238Z,96373.31
2022-12-09T14:51:10.078Z,96371.66
2022-12-09T14:53:52.101Z,96371.13
2022-12-09T14:56:22.559Z,96370.34
2022-12-09T14:58:52.361Z,96375.81
2022-12-09T15:01:22.116Z,96369.91
2022-12-09T15:03:59.953Z,96367.81
2022-12-09T15:06:30.487Z,96368.94
2022-12-09T15:09:01.426Z,96362.03
2022-12-09T15:11:33.289Z,96376.34
2022-12-09T15:14:25.252Z,96378.56
2022-12-09T15:16:54.424Z,96379.81
2022-12-09T15:19:58.519Z,96380.78
2022-12-09T15:22:22.902Z,96380.06
2022-12-09T15:24:55.119Z,96382.41
2022-12-09T15:27:25.829Z,96381.38
2022-12-09T15:29:56.238Z,96383.06
2022-12-09T15:32:27.681Z,96389.69
2022-12-09T15:34:56.919Z,96385.88
2022-12-09T15:37:28.928Z,96392.16
2022-12-09T15:40:02.548Z,96399.97
2022-12-09T15:42:33.512Z,96404.94
2022-12-09T15:45:05.908Z,96403.16
2022-12-09T15:47:37.322Z,96411.28
2022-12-09T15:50:12.521Z,96406.84
2022-12-09T15:52:43.825Z,96403.88
2022-12-09T15:55:17.057Z,96400.91
2022-12-09T15:57:46.872Z,96400.94
2022-12-09T16:00:19.715Z,96395.97
2022-12-09T16:03:06.876Z,96398.50
2022-12-09T16:05:41.645Z,96392.38
2022-12-09T16:08:11.983Z,96390.28
2022-12-09T16:10:50.386Z,96396.94
2022-12-09T16:13:22.271Z,96389.84
2022-12-09T16:15:54.706Z,96395.34
2022-12-09T16:18:27.190Z,96397.78
2022-12-09T16:21:23.873Z,96402.84
2022-12-09T16:23:55.456Z,96404.19
2022-12-09T16:26:31.829Z,96404.41
2022-12-09T16:29:03.729Z,96408.94
2022-12-09T16:31:34.051Z,96406.66
2022-12-09T16:34:22.787Z,96408.66
2022-12-09T16:36:57.063Z,96401.28
2022-12-09T16:39:43.232Z,96414.88
2022-12-09T16:42:26.743Z,96412.56
2022-12-09T16:44:57.383Z,96410.66
2022-12-09T16:47:28.266Z,96405.25
2022-12-09T16:49:58.331Z,96406.63
2022-12-09T16:52:28.747Z,96409.66
2022-12-09T16:55:00.149Z,96413.81
2022-12-09T16:57:32.016Z,96418.75
2022-12-09T17:00:04.091Z,96425.06
2022-12-09T17:02:36.965Z,96420.59
2022-12-09T17:05:07.407Z,96422.44
2022-12-09T17:07:37.994Z,96429.06
2022-12-09T17:10:08.989Z,96427.09
2022-12-09T17:12:40.809Z,96428.97
2022-12-09T17:15:12.021Z,96431.31
2022-12-09T17:17:48.139Z,96424.25
2022-12-09T17:20:18.985Z,96430.53
2022-12-09T17:22:49.408Z,96436.31
2022-12-09T17:25:19.620Z,96428.59
2022-12-09T17:27:51.323Z,96433.31
2022-12-09T17:30:21.591Z,96437.97
2022-12-09T17:32:52.607Z,96439.75
2022-12-09T17:35:22.722Z,96445.50
2022-12-09T17:37:53.286Z,96444.34
2022-12-09T17:40:23.573Z,96442.16
2022-12-09T17:42:55.282Z,96446.44
2022-12-09T17:45:25.466Z,96442.53
2022-12-09T17:47:54.614Z,96450.25
2022-12-09T17:50:24.635Z,96458.28
2022-12-09T17:52:54.352Z,96455.88
2022-12-09T17:55:23.846Z,96456.41
2022-12-09T17:57:54.756Z,96464.28
2022-12-09T18:00:24.477Z,96469.41
2022-12-09T18:02:55.250Z,96463.56
2022-12-09T18:05:25.264Z,96461.41
2022-12-09T18:07:55.182Z,96472.44
2022-12-09T18:10:25.879Z,96476.72
2022-12-09T18:12:58.060Z,96465.31
2022-12-09T18:15:40.759Z,96477.88
2022-12-09T18:18:14.096Z,96480.28
2022-12-09T18:20:45.908Z,96482.16
2022-12-09T18:23:15.505Z,96477.16
2022-12-09T18:25:45.361Z,96491.00
2022-12-09T18:28:17.519Z,96493.91
2022-12-09T18:30:47.739Z,96504.66
2022-12-09T18:33:17.630Z,96506.97
2022-12-09T18:35:48.044Z,96506.28
2022-12-09T18:38:21.916Z,96512.59
2022-12-09T18:41:03.237Z,96507.59
2022-12-09T18:43:35.230Z,96512.13
2022-12-09T18:46:09.471Z,96513.50
2022-12-09T18:48:39.369Z,96525.56
2022-12-09T18:51:12.681Z,96513.34
2022-12-09T18:53:43.608Z,96513.25
2022-12-09T18:56:14.446Z,96512.94
2022-12-09T19:01:41.240Z,96507.25
2022-12-09T19:04:15.095Z,96511.28
2022-12-09T19:06:46.174Z,96504.13
2022-12-09T19:09:34.561Z,96503.47
2022-12-09T19:12:45.215Z,96511.81
2022-12-09T19:15:23.336Z,96512.38
2022-12-09T19:17:53.705Z,96516.16
2022-12-09T19:20:28.653Z,96520.59
2022-12-09T19:23:01.239Z,96518.41
2022-12-09T19:25:31.266Z,96523.78
2022-12-09T19:28:10.585Z,96528.94
2022-12-09T19:30:49.784Z,96526.69
2022-12-09T19:33:21.178Z,96529.19
2022-12-09T19:35:51.953Z,96529.88
2022-12-09T19:38:24.213Z,96529.78
2022-12-09T19:40:56.162Z,96531.13
2022-12-09T19:43:26.412Z,96529.88
2022-12-09T19:46:04.107Z,96533.97
2022-12-09T19:48:36.020Z,96536.31
2022-12-09T19:51:07.069Z,96535.53
2022-12-09T19:53:38.556Z,96540.28
2022-12-09T19:56:10.157Z,96543.22
2022-12-09T19:58:55.534Z,96541.03
2022-12-09T20:01:28.750Z,96548.84
2022-12-09T20:04:13.508Z,96548.44
2022-12-09T20:06:49.510Z,96553.31
2022-12-09T20:09:38.194Z,96542.22
2022-12-09T20:12:08.640Z,96549.94
2022-12-09T20:14:42.038Z,96544.84
2022-12-09T20:17:14.272Z,96547.19
2022-12-09T20:19:44.536Z,96553.13
2022-12-09T20:22:17.690Z,96548.78
2022-12-09T20:24:53.155Z,96545.34
2022-12-09T20:27:25.736Z,96550.69
2022-12-09T20:30:01.723Z,96553.56
2022-12-09T20:32:34.673Z,96544.38
2022-12-09T20:35:14.955Z,96549.47
2022-12-09T20:37:50.322Z,96553.41
2022-12-09T20:40:21.798Z,96554.13
2022-12-09T20:42:52.606Z,96557.22
2022-12-09T20:45:23.035Z,96557.59
2022-12-09T20:47:58.375Z,96562.22
2022-12-09T20:50:32.251Z,96557.44
2022-12-09T20:53:05.217Z,96568.69
2022-12-09T20:55:35.632Z,96565.88
2022-12-09T20:58:06.064Z,96566.72
2022-12-09T21:00:37.096Z,96564.94
2022-12-09T21:03:17.837Z,96574.22
2022-12-09T21:05:48.641Z,96573.28
2022-12-09T21:08:29.813Z,96571.84
2022-12-09T21:11:06.605Z,96564.41
2022-12-09T21:13:42.097Z,96564.34
2022-12-09T21:16:20.583Z,96558.84
2022-12-09T21:18:53.661Z,96563.16
2022-12-09T21:21:25.281Z,96558.28
2022-12-09T21:23:57.162Z,96567.91
2022-12-09T21:26:27.750Z,96572.00
2022-12-09T21:28:59.011Z,96567.66
2022-12-09T21:31:31.358Z,96569.53
2022-12-09T21:34:04.325Z,96563.25
2022-12-09T21:36:35.158Z,96564.19
2022-12-09T21:39:05.434Z,96570.06
2022-12-09T21:41:39.638Z,96564.47
2022-12-09T21:44:11.404Z,96557.97
2022-12-09T21:46:42.997Z,96557.84
2022-12-09T21:49:14.597Z,96563.00
2022-12-09T21:54:31.486Z,96568.22
2022-12-09T21:57:01.760Z,96571.66
2022-12-09T21:59:32.260Z,96565.69
2022-12-09T22:02:02.468Z,96575.78
2022-12-09T22:04:34.100Z,96572.63
2022-12-09T22:07:04.231Z,96573.91
2022-12-09T22:09:35.068Z,96572.38
2022-12-09T22:12:05.255Z,96570.97
2022-12-09T22:14:35.075Z,96572.81
2022-12-09T22:17:05.240Z,96581.44
2022-12-09T22:19:35.851Z,96583.38
2022-12-09T22:22:09.080Z,96581.72
2022-12-09T22:24:38.109Z,96585.69
2022-12-09T22:27:07.565Z,96578.78
2022-12-09T22:29:36.660Z,96577.88
2022-12-09T22:32:06.703Z,96579.72
2022-12-09T22:34:38.338Z,96581.13
2022-12-09T22:37:35.193Z,96580.94
2022-12-09T22:39:57.505Z,96583.97
2022-12-09T22:42:26.225Z,96585.91
2022-12-09T22:44:55.047Z,96592.16
2022-12-09T22:47:24.052Z,96598.38
2022-12-09T22:49:54.205Z,96598.44
2022-12-09T22:52:23.436Z,96589.53
2022-12-09T22:54:52.146Z,96597.75
2022-12-09T22:57:20.842Z,96595.00
2022-12-09T22:59:49.616Z,96596.50
2022-12-09T23:02:18.382Z,96592.56
2022-12-09T23:04:47.139Z,96597.66
2022-12-09T23:07:17.263Z,96586.09
2022-12-09T23:09:46.209Z,96597.13
2022-12-09T23:12:14.872Z,96585.00
2022-12-09T23:14:43.843Z,96592.38
2022-12-09T23:17:12.467Z,96582.03
2022-12-09T23:19:41.208Z,96591.03
2022-12-09T23:22:09.847Z,96600.41
2022-12-09T23:24:40.430Z,96593.19
2022-12-09T23:27:09.070Z,96601.69
2022-12-09T23:29:37.791Z,96598.66
2022-12-09T23:32:06.896Z,96597.06
2022-12-09T23:34:41.664Z,96598.66
2022-12-09T23:37:10.458Z,96603.59
2022-12-09T23:39:41.476Z,96607.94
2022-12-09T23:42:10.172Z,96607.78
2022-12-09T23:44:39.448Z,96611.28
2022-12-09T23:47:08.590Z,96612.78
2022-12-09T23:49:37.223Z,96615.41
2022-12-09T23:52:06.215Z,96619.41
2022-12-09T23:54:35.084Z,96620.19
2022-12-09T23:57:05.265Z,96613.44
2022-12-09T23:59:34.321Z,96611.75
